createdAt,value
2024-01-05T00:01:44.727Z,95711.75
2024-01-05T00:04:11.328Z,95708.66
2024-01-05T00:06:39.162Z,95701.34
2024-01-05T00:09:06.180Z,95694.66
2024-01-05T00:11:32.839Z,95676.72
2024-01-05T00:13:59.396Z,95669.53
2024-01-05T00:16:26.013Z,95664.47
2024-01-05T00:18:52.779Z,95660.03
2024-01-05T00:21:26.358Z,95668.66
2024-01-05T00:23:53.652Z,95666.38
2024-01-05T00:26:20.433Z,95664.59
2024-01-05T00:28:47.553Z,95668.38
2024-01-05T00:31:14.696Z,95669.44
2024-01-05T00:33:41.614Z,95680.09
2024-01-05T00:36:08.828Z,95662.50
2024-01-05T00:38:35.483Z,95657.78
2024-01-05T00:41:02.004Z,95657.44
2024-01-05T00:43:28.681Z,95643.63
2024-01-05T00:45:55.480Z,95649.94
2024-01-05T00:48:25.235Z,95620.97
2024-01-05T00:50:51.999Z,95629.03
2024-01-05T00:53:18.518Z,95628.56
2024-01-05T00:55:45.107Z,95624.88
2024-01-05T00:58:11.597Z,95620.97
2024-01-05T01:00:38.287Z,95624.41
2024-01-05T01:03:05.273Z,95621.81
2024-01-05T01:05:31.884Z,95631.53
2024-01-05T01:07:58.483Z,95617.53
2024-01-05T01:10:25.166Z,95612.34
2024-01-05T01:12:51.797Z,95599.50
2024-01-05T01:15:18.375Z,95617.13
2024-01-05T01:17:45.355Z,95611.63
2024-01-05T01:20:11.969Z,95613.47
2024-01-05T01:22:38.541Z,95602.69
2024-01-05T01:25:05.423Z,95597.84
2024-01-05T01:27:32.088Z,95595.25
2024-01-05T01:29:58.864Z,95582.00
2024-01-05T01:32:25.529Z,95591.03
2024-01-05T01:34:52.080Z,95589.25
2024-01-05T01:37:18.719Z,95578.66
2024-01-05T01:39:45.347Z,95569.94
2024-01-05T01:42:12.244Z,95577.81
2024-01-05T01:44:38.892Z,95573.03
2024-01-05T01:47:05.538Z,95562.25
2024-01-05T01:49:32.205Z,95560.34
2024-01-05T01:51:58.921Z,95563.88
2024-01-05T01:54:25.672Z,95564.34
2024-01-05T01:56:52.348Z,95558.97
2024-01-05T01:59:19.021Z,95565.94
2024-01-05T02:01:45.688Z,95555.63
2024-01-05T02:04:15.568Z,95559.03
2024-01-05T02:06:46.110Z,95541.59
2024-01-05T02:09:13.405Z,95543.53
2024-01-05T02:11:43.046Z,95537.22
2024-01-05T02:14:10.005Z,95546.63
2024-01-05T02:16:36.512Z,95540.00
2024-01-05T02:19:03.250Z,95541.38
2024-01-05T02:21:34.646Z,95541.44
2024-01-05T02:24:01.438Z,95537.34
2024-01-05T02:26:28.131Z,95536.19
2024-01-05T02:28:54.692Z,95529.28
2024-01-05T02:31:21.428Z,95532.69
2024-01-05T02:33:48.122Z,95529.44
2024-01-05T02:36:15.111Z,95516.94
2024-01-05T02:38:41.641Z,95519.94
2024-01-05T02:41:09.279Z,95514.06
2024-01-05T02:43:35.811Z,95513.97
2024-01-05T02:46:02.361Z,95513.59
2024-01-05T02:48:29.091Z,95505.00
2024-01-05T02:50:55.797Z,95510.66
2024-01-05T02:53:24.390Z,95512.53
2024-01-05T02:55:51.003Z,95501.69
2024-01-05T02:58:17.518Z,95501.59
2024-01-05T03:00:44.224Z,95493.41
2024-01-05T03:03:10.944Z,95488.38
2024-01-05T03:05:37.629Z,95491.44
2024-01-05T03:08:04.494Z,95480.59
2024-01-05T03:10:31.144Z,95493.59
2024-01-05T03:12:57.663Z,95488.00
2024-01-05T03:15:24.343Z,95482.78
2024-01-05T03:17:52.251Z,95476.44
2024-01-05T03:20:19.220Z,95478.31
2024-01-05T03:22:45.779Z,95478.81
2024-01-05T03:25:12.321Z,95472.50
2024-01-05T03:27:38.950Z,95470.69
2024-01-05T03:30:05.984Z,95467.38
2024-01-05T03:32:32.787Z,95474.97
2024-01-05T03:34:59.577Z,95465.72
2024-01-05T03:37:26.090Z,95449.47
2024-01-05T03:39:52.668Z,95463.09
2024-01-05T03:42:19.525Z,95470.75
2024-01-05T03:44:46.209Z,95443.75
2024-01-05T03:47:12.794Z,95443.88
2024-01-05T03:49:39.443Z,95449.25
2024-01-05T03:52:06.170Z,95427.34
2024-01-05T03:54:32.860Z,95406.38
2024-01-05T03:56:59.489Z,95410.41
2024-01-05T03:59:26.103Z,95401.47
2024-01-05T04:01:52.710Z,95426.97
2024-01-05T04:04:19.490Z,95407.09
2024-01-05T04:06:46.982Z,95406.97
2024-01-05T04:09:13.971Z,95404.41
2024-01-05T04:11:40.659Z,95383.56
2024-01-05T04:14:07.483Z,95408.97
2024-01-05T04:16:34.243Z,95397.28
2024-01-05T04:19:01.135Z,95386.50
2024-01-05T04:21:27.890Z,95390.53
2024-01-05T04:23:55.612Z,95388.84
2024-01-05T04:26:22.174Z,95393.06
2024-01-05T04:28:48.840Z,95389.53
2024-01-05T04:31:15.606Z,95383.72
2024-01-05T04:33:42.490Z,95379.19
2024-01-05T04:36:09.128Z,95378.50
2024-01-05T04:38:35.942Z,95383.09
2024-01-05T04:41:02.922Z,95387.78
2024-01-05T04:43:29.484Z,95376.22
2024-01-05T04:45:55.972Z,95385.19
2024-01-05T04:48:22.835Z,95376.78
2024-01-05T04:50:49.560Z,95381.16
2024-01-05T04:53:16.121Z,95380.03
2024-01-05T04:55:42.670Z,95374.75
2024-01-05T04:58:09.406Z,95372.16
2024-01-05T05:00:36.168Z,95374.34
2024-01-05T05:03:02.909Z,95364.94
2024-01-05T05:05:29.711Z,95360.50
2024-01-05T05:07:56.320Z,95355.94
2024-01-05T05:10:26.079Z,95350.69
2024-01-05T05:12:52.590Z,95340.84
2024-01-05T05:15:19.374Z,95335.75
2024-01-05T05:17:46.105Z,95326.22
2024-01-05T05:20:12.837Z,95336.91
2024-01-05T05:22:39.344Z,95326.31
2024-01-05T05:25:07.755Z,95337.00
2024-01-05T05:27:34.891Z,95351.47
2024-01-05T05:30:05.539Z,95339.41
2024-01-05T05:32:33.398Z,95347.22
2024-01-05T05:34:59.952Z,95354.13
2024-01-05T05:37:26.738Z,95362.16
2024-01-05T05:39:53.543Z,95362.94
2024-01-05T05:42:20.203Z,95380.56
2024-01-05T05:44:46.758Z,95366.56
2024-01-05T05:47:13.337Z,95354.50
2024-01-05T05:49:39.997Z,95364.06
2024-01-05T05:52:07.110Z,95365.47
2024-01-05T05:54:33.799Z,95350.56
2024-01-05T05:57:00.441Z,95355.53
2024-01-05T05:59:30.333Z,95355.19
2024-01-05T06:01:56.857Z,95353.00
2024-01-05T06:04:23.389Z,95358.59
2024-01-05T06:06:50.015Z,95356.50
2024-01-05T06:09:16.726Z,95362.88
2024-01-05T06:11:43.565Z,95356.63
2024-01-05T06:14:10.343Z,95370.63
2024-01-05T06:16:36.999Z,95353.88
2024-01-05T06:19:03.692Z,95355.88
2024-01-05T06:21:30.438Z,95358.94
2024-01-05T06:23:57.033Z,95362.59
2024-01-05T06:26:23.648Z,95369.44
2024-01-05T06:28:50.206Z,95359.03
2024-01-05T06:31:16.868Z,95370.75
2024-01-05T06:33:44.096Z,95370.09
2024-01-05T06:36:10.852Z,95363.47
2024-01-05T06:38:37.404Z,95370.47
2024-01-05T06:41:03.974Z,95361.91
2024-01-05T06:43:30.502Z,95353.94
2024-01-05T06:45:57.004Z,95358.22
2024-01-05T06:48:23.848Z,95353.97
2024-01-05T06:50:50.536Z,95359.25
2024-01-05T06:53:17.271Z,95364.44
2024-01-05T06:55:43.779Z,95350.00
2024-01-05T06:58:10.365Z,95351.59
2024-01-05T07:00:39.357Z,95361.88
2024-01-05T07:03:06.327Z,95353.59
2024-01-05T07:05:33.123Z,95355.22
2024-01-05T07:07:59.692Z,95350.47
2024-01-05T07:10:28.598Z,95353.00
2024-01-05T07:12:56.685Z,95358.84
2024-01-05T07:15:23.594Z,95357.00
2024-01-05T07:17:50.224Z,95356.63
2024-01-05T07:20:16.990Z,95370.66
2024-01-05T07:22:45.556Z,95369.31
2024-01-05T07:25:12.254Z,95357.09
2024-01-05T07:27:38.844Z,95354.97
2024-01-05T07:30:06.441Z,95351.19
2024-01-05T07:32:33.162Z,95346.84
2024-01-05T07:34:59.879Z,95338.81
2024-01-05T07:37:26.467Z,95343.53
2024-01-05T07:39:53.259Z,95335.97
2024-01-05T07:42:20.009Z,95330.72
2024-01-05T07:44:46.517Z,95355.22
2024-01-05T07:47:13.029Z,95334.06
2024-01-05T07:49:41.394Z,95336.84
2024-01-05T07:52:08.098Z,95337.69
2024-01-05T07:54:34.718Z,95350.50
2024-01-05T07:57:01.383Z,95342.47
2024-01-05T07:59:30.990Z,95342.78
2024-01-05T08:01:57.502Z,95335.06
2024-01-05T08:04:24.235Z,95337.41
2024-01-05T08:06:52.345Z,95337.47
2024-01-05T08:09:19.083Z,95325.56
2024-01-05T08:11:46.104Z,95319.97
2024-01-05T08:14:13.167Z,95319.75
2024-01-05T08:16:39.688Z,95318.38
2024-01-05T08:19:06.374Z,95324.97
2024-01-05T08:21:33.173Z,95312.03
2024-01-05T08:23:59.828Z,95319.38
2024-01-05T08:26:30.443Z,95329.66
2024-01-05T08:28:57.231Z,95325.03
2024-01-05T08:31:23.962Z,95320.47
2024-01-05T08:33:50.696Z,95320.97
2024-01-05T08:36:17.475Z,95312.31
2024-01-05T08:38:44.782Z,95323.19
2024-01-05T08:41:11.352Z,95316.53
2024-01-05T08:43:40.045Z,95317.19
2024-01-05T08:46:06.665Z,95325.19
2024-01-05T08:48:33.279Z,95314.47
2024-01-05T08:50:59.949Z,95311.75
2024-01-05T08:53:26.579Z,95317.50
2024-01-05T08:55:53.085Z,95338.66
2024-01-05T08:58:19.662Z,95329.47
2024-01-05T09:00:46.369Z,95326.91
2024-01-05T09:03:13.175Z,95312.50
2024-01-05T09:05:39.843Z,95338.09
2024-01-05T09:08:06.600Z,95315.16
2024-01-05T09:10:34.455Z,95325.25
2024-01-05T09:13:01.666Z,95321.25
2024-01-05T09:15:28.525Z,95340.88
2024-01-05T09:17:55.320Z,95326.91
2024-01-05T09:20:21.953Z,95322.97
2024-01-05T09:22:48.521Z,95336.41
2024-01-05T09:25:15.283Z,95325.94
2024-01-05T09:27:42.034Z,95328.03
2024-01-05T09:30:09.423Z,95339.53
2024-01-05T09:32:36.230Z,95338.69
2024-01-05T09:35:02.887Z,95344.41
2024-01-05T09:37:32.345Z,95345.81
2024-01-05T09:39:59.011Z,95357.72
2024-01-05T09:42:27.822Z,95356.19
2024-01-05T09:44:54.843Z,95340.44
2024-01-05T09:47:21.491Z,95364.38
2024-01-05T09:49:50.611Z,95344.34
2024-01-05T09:52:17.410Z,95361.88
2024-01-05T09:54:44.049Z,95337.66
2024-01-05T09:57:11.074Z,95345.66
2024-01-05T09:59:40.002Z,95349.19
2024-01-05T10:02:06.832Z,95356.97
2024-01-05T10:04:33.643Z,95355.34
2024-01-05T10:07:01.627Z,95338.88
2024-01-05T10:09:30.292Z,95347.78
2024-01-05T10:11:57.633Z,95347.94
2024-01-05T10:14:27.738Z,95366.78
2024-01-05T10:17:14.858Z,95345.91
2024-01-05T10:19:43.201Z,95344.72
2024-01-05T10:22:13.072Z,95349.19
2024-01-05T10:24:40.139Z,95349.63
2024-01-05T10:27:10.752Z,95339.84
2024-01-05T10:29:40.458Z,95343.91
2024-01-05T10:32:17.566Z,95344.41
2024-01-05T10:34:48.242Z,95350.00
2024-01-05T10:37:15.707Z,95352.94
2024-01-05T10:39:59.824Z,95344.91
2024-01-05T10:42:27.037Z,95348.63
2024-01-05T10:44:54.728Z,95346.06
2024-01-05T10:47:28.037Z,95359.06
2024-01-05T10:49:57.070Z,95350.66
2024-01-05T10:52:25.559Z,95339.63
2024-01-05T10:54:53.868Z,95362.03
2024-01-05T10:57:21.745Z,95350.44
2024-01-05T10:59:49.056Z,95358.19
2024-01-05T11:02:22.943Z,95350.63
2024-01-05T11:04:55.864Z,95367.28
2024-01-05T11:07:23.077Z,95364.06
2024-01-05T11:10:12.890Z,95376.16
2024-01-05T11:12:44.415Z,95362.38
2024-01-05T11:15:14.251Z,95356.13
2024-01-05T11:17:59.608Z,95357.66
2024-01-05T11:20:40.894Z,95353.59
2024-01-05T11:23:09.651Z,95357.91
2024-01-05T11:25:36.195Z,95352.38
2024-01-05T11:28:03.390Z,95353.63
2024-01-05T11:30:40.637Z,95359.47
2024-01-05T11:33:08.442Z,95350.16
2024-01-05T11:35:42.764Z,95342.28
2024-01-05T11:38:29.614Z,95345.50
2024-01-05T11:40:56.174Z,95349.22
2024-01-05T11:43:34.710Z,95324.72
2024-01-05T11:46:01.352Z,95328.03
2024-01-05T11:48:38.624Z,95338.16
2024-01-05T11:51:09.007Z,95347.13
2024-01-05T11:53:35.758Z,95339.31
2024-01-05T11:56:09.647Z,95348.00
2024-01-05T11:58:45.260Z,95347.72
2024-01-05T12:01:13.282Z,95361.06
2024-01-05T12:03:40.464Z,95356.56
2024-01-05T12:06:08.321Z,95344.38
2024-01-05T12:08:35.079Z,95322.19
2024-01-05T12:11:04.208Z,95314.81
2024-01-05T12:13:32.028Z,95309.53
2024-01-05T12:16:01.998Z,95311.97
2024-01-05T12:18:37.517Z,95311.34
2024-01-05T12:21:08.178Z,95337.78
2024-01-05T12:23:35.722Z,95317.06
2024-01-05T12:26:06.788Z,95326.19
2024-01-05T12:28:40.027Z,95320.88
2024-01-05T12:31:07.150Z,95311.25
2024-01-05T12:33:36.297Z,95311.88
2024-01-05T12:36:04.044Z,95317.06
2024-01-05T12:38:32.570Z,95313.88
2024-01-05T12:41:14.793Z,95321.50
2024-01-05T12:43:51.588Z,95320.25
2024-01-05T12:46:23.953Z,95320.94
2024-01-05T12:48:51.942Z,95328.31
2024-01-05T12:51:24.147Z,95324.25
2024-01-05T12:54:02.859Z,95332.22
2024-01-05T12:56:29.753Z,95332.22
2024-01-05T12:58:56.328Z,95330.63
2024-01-05T13:01:24.484Z,95347.91
2024-01-05T13:03:53.449Z,95338.28
2024-01-05T13:06:20.974Z,95332.63
2024-01-05T13:08:47.780Z,95339.47
2024-01-05T13:11:23.748Z,95360.47
2024-01-05T13:13:50.596Z,95339.06
2024-01-05T13:16:17.229Z,95341.53
2024-01-05T13:18:44.122Z,95338.50
2024-01-05T13:21:11.134Z,95337.16
2024-01-05T13:23:38.874Z,95349.13
2024-01-05T13:26:05.525Z,95350.28
2024-01-05T13:28:36.656Z,95337.19
2024-01-05T13:31:03.582Z,95316.69
2024-01-05T13:33:30.601Z,95328.38
2024-01-05T13:35:58.165Z,95341.84
2024-01-05T13:38:24.754Z,95335.31
2024-01-05T13:40:51.403Z,95338.13
2024-01-05T13:43:17.981Z,95345.94
2024-01-05T13:45:44.730Z,95339.34
2024-01-05T13:48:11.525Z,95346.06
2024-01-05T13:50:40.427Z,95342.88
2024-01-05T13:53:12.282Z,95345.66
2024-01-05T13:55:38.848Z,95356.75
2024-01-05T13:58:05.518Z,95360.66
2024-01-05T14:00:32.261Z,95346.28
2024-01-05T14:02:58.890Z,95352.34
2024-01-05T14:05:25.707Z,95363.81
2024-01-05T14:07:52.514Z,95360.09
2024-01-05T14:10:19.157Z,95353.63
2024-01-05T14:12:45.733Z,95368.16
2024-01-05T14:15:12.365Z,95361.16
2024-01-05T14:17:39.330Z,95360.56
2024-01-05T14:20:07.475Z,95366.94
2024-01-05T14:22:34.159Z,95361.16
2024-01-05T14:25:00.966Z,95354.25
2024-01-05T14:27:27.746Z,95350.22
2024-01-05T14:29:54.378Z,95362.16
2024-01-05T14:32:21.047Z,95356.72
2024-01-05T14:34:47.699Z,95371.31
2024-01-05T14:37:14.409Z,95385.06
2024-01-05T14:39:41.049Z,95348.09
2024-01-05T14:42:07.700Z,95345.72
2024-01-05T14:44:34.462Z,95358.06
2024-01-05T14:47:01.127Z,95362.84
2024-01-05T14:49:27.931Z,95362.63
2024-01-05T14:51:56.978Z,95361.13
2024-01-05T14:54:23.671Z,95374.06
2024-01-05T14:56:50.358Z,95358.59
2024-01-05T14:59:17.005Z,95366.59
2024-01-05T15:01:43.634Z,95368.16
2024-01-05T15:04:10.383Z,95357.53
2024-01-05T15:06:37.482Z,95367.31
2024-01-05T15:09:04.326Z,95375.09
2024-01-05T15:11:33.025Z,95377.44
2024-01-05T15:14:00.931Z,95379.47
2024-01-05T15:16:28.228Z,95371.56
2024-01-05T15:18:55.131Z,95369.31
2024-01-05T15:21:25.999Z,95375.03
2024-01-05T15:23:53.211Z,95364.88
2024-01-05T15:26:19.786Z,95377.34
2024-01-05T15:28:46.444Z,95367.31
2024-01-05T15:31:19.774Z,95371.06
2024-01-05T15:33:47.145Z,95365.59
2024-01-05T15:36:18.484Z,95371.44
2024-01-05T15:38:48.220Z,95367.56
2024-01-05T15:41:14.801Z,95374.66
2024-01-05T15:43:41.388Z,95368.13
2024-01-05T15:46:09.978Z,95381.78
2024-01-05T15:48:37.068Z,95383.31
2024-01-05T15:51:03.901Z,95381.66
2024-01-05T15:53:31.859Z,95374.06
2024-01-05T15:55:59.464Z,95380.75
2024-01-05T15:58:26.254Z,95378.66
2024-01-05T16:00:55.994Z,95379.78
2024-01-05T16:03:24.027Z,95385.25
2024-01-05T16:05:51.005Z,95394.53
2024-01-05T16:08:17.617Z,95390.59
2024-01-05T16:10:44.170Z,95390.28
2024-01-05T16:13:10.757Z,95404.50
2024-01-05T16:15:37.466Z,95403.88
2024-01-05T16:18:04.305Z,95401.59
2024-01-05T16:20:31.042Z,95402.06
2024-01-05T16:22:57.559Z,95403.03
2024-01-05T16:25:24.152Z,95399.09
2024-01-05T16:27:50.765Z,95396.16
2024-01-05T16:30:17.926Z,95400.41
2024-01-05T16:32:46.235Z,95397.94
2024-01-05T16:35:12.827Z,95408.53
2024-01-05T16:37:39.601Z,95407.13
2024-01-05T16:40:07.129Z,95411.25
2024-01-05T16:42:33.856Z,95414.72
2024-01-05T16:45:00.638Z,95418.09
2024-01-05T16:47:27.409Z,95410.97
2024-01-05T16:49:54.181Z,95411.69
2024-01-05T16:52:20.905Z,95417.13
2024-01-05T16:54:47.532Z,95413.84
2024-01-05T16:57:14.259Z,95413.69
2024-01-05T16:59:42.441Z,95410.78
2024-01-05T17:02:09.114Z,95414.88
2024-01-05T17:04:35.912Z,95409.00
2024-01-05T17:07:02.709Z,95413.13
2024-01-05T17:09:29.489Z,95411.41
2024-01-05T17:11:58.299Z,95415.78
2024-01-05T17:14:25.105Z,95418.53
2024-01-05T17:16:52.013Z,95419.63
2024-01-05T17:19:19.519Z,95414.09
2024-01-05T17:21:49.053Z,95417.84
2024-01-05T17:24:15.975Z,95418.72
2024-01-05T17:26:42.589Z,95417.34
2024-01-05T17:29:09.145Z,95430.56
2024-01-05T17:31:35.971Z,95434.69
2024-01-05T17:34:02.838Z,95440.56
2024-01-05T17:36:30.517Z,95446.28
2024-01-05T17:38:57.622Z,95440.34
2024-01-05T17:41:24.283Z,95449.69
2024-01-05T17:43:51.042Z,95441.69
2024-01-05T17:46:17.716Z,95455.63
2024-01-05T17:48:44.516Z,95451.41
2024-01-05T17:51:11.245Z,95443.47
2024-01-05T17:53:38.342Z,95454.88
2024-01-05T17:56:05.131Z,95453.31
2024-01-05T17:58:31.793Z,95454.06
2024-01-05T18:00:58.409Z,95455.56
2024-01-05T18:03:26.744Z,95456.88
2024-01-05T18:05:53.555Z,95457.69
2024-01-05T18:08:20.154Z,95456.28
2024-01-05T18:10:46.696Z,95457.03
2024-01-05T18:13:13.255Z,95469.97
2024-01-05T18:15:39.786Z,95471.53
2024-01-05T18:18:08.498Z,95474.06
2024-01-05T18:20:35.304Z,95475.03
2024-01-05T18:23:02.041Z,95478.31
2024-01-05T18:25:30.457Z,95480.97
2024-01-05T18:28:00.045Z,95491.41
2024-01-05T18:30:27.850Z,95486.59
2024-01-05T18:32:54.605Z,95483.81
2024-01-05T18:35:21.365Z,95482.38
2024-01-05T18:37:47.912Z,95485.84
2024-01-05T18:40:14.639Z,95494.13
2024-01-05T18:42:41.222Z,95492.56
2024-01-05T18:45:08.090Z,95486.16
2024-01-05T18:47:34.749Z,95492.13
2024-01-05T18:50:01.643Z,95490.41
2024-01-05T18:52:28.317Z,95490.38
2024-01-05T18:54:55.008Z,95488.91
2024-01-05T18:57:21.620Z,95484.00
2024-01-05T18:59:48.210Z,95501.19
2024-01-05T19:02:14.865Z,95498.91
2024-01-05T19:04:41.674Z,95490.84
2024-01-05T19:07:08.384Z,95504.03
2024-01-05T19:09:35.377Z,95509.81
2024-01-05T19:12:02.085Z,95512.00
2024-01-05T19:14:28.744Z,95513.16
2024-01-05T19:16:55.434Z,95512.69
2024-01-05T19:19:22.551Z,95515.84
2024-01-05T19:21:56.222Z,95518.72
2024-01-05T19:24:24.896Z,95525.47
2024-01-05T19:26:53.916Z,95542.28
2024-01-05T19:29:20.507Z,95531.28
2024-01-05T19:31:47.288Z,95544.00
2024-01-05T19:34:14.248Z,95537.81
2024-01-05T19:36:47.413Z,95529.50
2024-01-05T19:39:14.542Z,95532.56
2024-01-05T19:41:51.296Z,95535.09
2024-01-05T19:44:18.716Z,95544.94
2024-01-05T19:46:45.749Z,95548.56
2024-01-05T19:49:13.573Z,95555.34
2024-01-05T19:51:48.861Z,95557.72
2024-01-05T19:54:17.125Z,95553.19
2024-01-05T19:56:44.180Z,95550.78
2024-01-05T19:59:12.190Z,95550.19
2024-01-05T20:01:41.112Z,95554.34
2024-01-05T20:04:07.882Z,95547.63
2024-01-05T20:06:36.229Z,95548.75
2024-01-05T20:09:03.394Z,95551.47
2024-01-05T20:11:30.513Z,95556.50
2024-01-05T20:13:57.122Z,95552.53
2024-01-05T20:16:24.614Z,95549.47
2024-01-05T20:18:51.215Z,95562.41
2024-01-05T20:21:19.021Z,95540.38
2024-01-05T20:23:45.645Z,95552.25
2024-01-05T20:26:17.455Z,95550.03
2024-01-05T20:28:44.024Z,95546.72
2024-01-05T20:31:10.723Z,95547.56
2024-01-05T20:33:37.557Z,95559.00
2024-01-05T20:36:04.540Z,95557.38
2024-01-05T20:38:31.129Z,95553.59
2024-01-05T20:40:57.963Z,95558.19
2024-01-05T20:43:24.625Z,95566.34
2024-01-05T20:45:51.288Z,95577.50
2024-01-05T20:48:18.089Z,95573.91
2024-01-05T20:50:44.756Z,95577.94
2024-01-05T20:53:12.703Z,95580.34
2024-01-05T20:55:39.579Z,95559.31
2024-01-05T20:58:06.207Z,95585.16
2024-01-05T21:00:33.041Z,95570.72
2024-01-05T21:02:59.653Z,95573.75
2024-01-05T21:05:26.502Z,95572.97
2024-01-05T21:07:54.115Z,95565.34
2024-01-05T21:10:20.705Z,95575.97
2024-01-05T21:12:47.319Z,95581.81
2024-01-05T21:15:14.091Z,95587.09
2024-01-05T21:17:40.831Z,95583.13
2024-01-05T21:20:07.812Z,95574.47
2024-01-05T21:22:36.328Z,95583.75
2024-01-05T21:25:05.201Z,95588.13
2024-01-05T21:27:31.811Z,95585.75
2024-01-05T21:29:58.917Z,95587.00
2024-01-05T21:32:28.645Z,95586.94
2024-01-05T21:34:56.484Z,95587.72
2024-01-05T21:37:24.016Z,95587.72
2024-01-05T21:39:50.845Z,95588.91
2024-01-05T21:42:20.467Z,95589.41
2024-01-05T21:44:47.133Z,95589.47
2024-01-05T21:47:13.697Z,95595.47
2024-01-05T21:49:40.615Z,95601.16
2024-01-05T21:52:10.355Z,95601.28
2024-01-05T21:54:38.164Z,95607.84
2024-01-05T21:57:05.051Z,95597.59
2024-01-05T21:59:33.805Z,95603.47
2024-01-05T22:02:01.256Z,95616.00
2024-01-05T22:04:27.932Z,95610.81
2024-01-05T22:06:54.823Z,95608.78
2024-01-05T22:09:21.750Z,95612.31
2024-01-05T22:11:48.900Z,95609.31
2024-01-05T22:14:15.833Z,95620.44
2024-01-05T22:16:42.865Z,95613.00
2024-01-05T22:19:10.056Z,95620.91
2024-01-05T22:21:36.929Z,95625.72
2024-01-05T22:24:03.697Z,95616.59
2024-01-05T22:26:34.421Z,95616.06
2024-01-05T22:29:01.447Z,95620.09
2024-01-05T22:31:28.105Z,95618.06
2024-01-05T22:33:54.838Z,95617.81
2024-01-05T22:36:21.480Z,95622.91
2024-01-05T22:38:48.069Z,95613.63
2024-01-05T22:41:14.768Z,95620.44
2024-01-05T22:43:41.494Z,95618.66
2024-01-05T22:46:11.212Z,95628.44
2024-01-05T22:48:38.161Z,95630.19
2024-01-05T22:51:05.744Z,95633.78
2024-01-05T22:53:32.449Z,95633.16
2024-01-05T22:55:58.937Z,95641.31
2024-01-05T22:58:25.569Z,95633.03
2024-01-05T23:00:53.702Z,95651.47
2024-01-05T23:03:20.708Z,95649.34
2024-01-05T23:05:47.950Z,95651.75
2024-01-05T23:08:14.673Z,95657.47
2024-01-05T23:10:41.454Z,95655.81
2024-01-05T23:13:09.629Z,95661.00
2024-01-05T23:15:36.418Z,95661.38
2024-01-05T23:18:03.289Z,95663.56
2024-01-05T23:20:31.577Z,95660.22
2024-01-05T23:22:58.274Z,95672.84
2024-01-05T23:25:24.853Z,95670.94
2024-01-05T23:27:51.846Z,95675.59
2024-01-05T23:30:18.613Z,95669.91
2024-01-05T23:32:45.382Z,95662.06
2024-01-05T23:35:12.337Z,95661.06
2024-01-05T23:37:38.948Z,95667.78
2024-01-05T23:40:06.216Z,95673.09
2024-01-05T23:42:33.072Z,95662.44
2024-01-05T23:44:59.767Z,95673.47
2024-01-05T23:47:27.134Z,95666.63
2024-01-05T23:49:55.787Z,95675.22
2024-01-05T23:52:22.681Z,95676.38
2024-01-05T23:54:49.321Z,95676.53
2024-01-05T23:57:15.982Z,95676.03
2024-01-05T23:59:42.623Z,95676.59
